Latest Weather Observations for Sydney Harbour

IDN60801

Issued at 4:32 pm EST Sunday 23 July 2017 (issued every 30 minutes, with the page automatically refreshed every 10 minutes)

About weather observations | Map of weather stations | Latest weather observations for NSW | Other Formats
Station Details ID: 066196 Name: WEDDING CAKE WEST Lat: -33.84 Lon: 151.26 Height: 6.0 m
Data from the previous 72 hours. | See also: Recent months at Sydney Harbour
Date/Time
EST
Temp
°C
App
Temp
°C
Dew
Point
°C
Rel
Hum
%
Delta-T
°C
Wind Press
QNH
hPa
Press
MSL
hPa
Rain since
9am
mm
Dir  Spd
km/h
Gust
km/h
Spd
kts
Gust
kts
23/04:30pm 21.5 - - - - NNW 15 26 8 14 - - -
23/04:00pm 21.7 - - - - WNW 19 28 10 15 - - -
23/03:30pm 21.6 - - - - WNW 24 39 13 21 - - -
23/03:00pm 21.5 - - - - WNW 30 41 16 22 - - -
23/02:30pm 21.0 - - - - WNW 24 37 13 20 - - -
23/02:00pm 20.8 - - - - W 30 41 16 22 - - -
23/01:30pm 19.9 - - - - W 28 35 15 19 - - -
23/01:00pm 19.4 - - - - WNW 26 39 14 21 - - -
23/12:30pm 18.5 - - - - W 26 35 14 19 - - -
23/12:00pm 17.8 - - - - W 24 33 13 18 - - -
23/11:30am 17.5 - - - - W 19 30 10 16 - - -
23/11:00am 16.4 - - - - SW 15 24 8 13 - - -
23/10:30am 16.3 - - - - WNW 22 37 12 20 - - -
23/10:00am 15.4 - - - - W 26 37 14 20 - - -
23/09:30am 14.6 - - - - W 20 35 11 19 - - -
23/09:00am 13.2 - - - - NW 11 17 6 9 - - -
23/08:30am 11.9 - - - - WNW 9 17 5 9 - - -
23/08:00am 10.5 - - - - WNW 7 11 4 6 - - -
23/07:30am 10.2 - - - - WNW 2 9 1 5 - - -
23/07:00am 9.3 - - - - WNW 6 9 3 5 - - -
23/06:30am 8.7 - - - - WNW 7 9 4 5 - - -
23/06:00am 8.7 - - - - WNW 11 13 6 7 - - -
23/05:30am 8.2 - - - - WNW 9 13 5 7 - - -
23/05:00am 8.9 - - - - WNW 13 15 7 8 - - -
23/04:30am 9.3 - - - - WNW 9 11 5 6 - - -
23/04:00am 9.2 - - - - WNW 7 9 4 5 - - -
23/03:30am 9.5 - - - - WNW 7 9 4 5 - - -
23/03:00am 9.1 - - - - WNW 9 11 5 6 - - -
23/02:30am 9.6 - - - - WNW 7 9 4 5 - - -
23/02:00am 9.3 - - - - WNW 6 7 3 4 - - -
23/01:30am 9.7 - - - - WNW 7 9 4 5 - - -
23/01:00am 10.4 - - - - WNW 11 13 6 7 - - -
23/12:30am 12.0 - - - - WNW 6 9 3 5 - - -
23/12:00am 13.0 - - - - NW 19 26 10 14 - - -
 
Date/Time
EST
Temp
°C
App
Temp
°C
Dew
Point
°C
Rel
Hum
%
Delta-T
°C
Wind Press
QNH
hPa
Press
MSL
hPa
Rain since
9am
mm
Dir  Spd
km/h
Gust
km/h
Spd
kts
Gust
kts
22/11:30pm 13.3 - - - - NW 22 30 12 16 - - -
22/11:00pm 13.8 - - - - NW 20 26 11 14 - - -
22/10:30pm 13.9 - - - - NW 20 26 11 14 - - -
22/10:00pm 14.4 - - - - WNW 22 28 12 15 - - -
22/09:30pm 14.6 - - - - WNW 11 17 6 9 - - -
22/09:00pm 13.9 - - - - W 7 17 4 9 - - -
22/08:30pm 13.4 - - - - SW 7 9 4 5 - - -
22/08:00pm 14.0 - - - - SW 7 9 4 5 - - -
22/07:30pm 14.2 - - - - CALM 0 0 0 0 - - -
22/07:00pm 14.4 - - - - CALM 0 0 0 0 - - -
22/06:30pm 14.5 - - - - CALM 0 0 0 0 - - -
22/06:00pm 14.8 - - - - CALM 0 0 0 0 - - -
22/05:30pm 16.7 - - - - SW 4 7 2 4 - - -
22/05:00pm 15.6 - - - - CALM 0 0 0 0 - - -
22/04:30pm 17.1 - - - - SW 9 11 5 6 - - -
22/04:00pm 16.7 - - - - SW 2 6 1 3 - - -
22/03:30pm 16.4 - - - - SW 6 9 3 5 - - -
22/03:00pm 16.3 - - - - SW 7 9 4 5 - - -
22/02:30pm 16.1 - - - - SW 9 11 5 6 - - -
22/02:00pm 15.7 - - - - WSW 13 19 7 10 - - -
22/01:30pm 15.3 - - - - WSW 17 20 9 11 - - -
22/01:00pm 14.8 - - - - SW 17 20 9 11 - - -
22/12:30pm 14.7 - - - - WNW 13 20 7 11 - - -
22/12:00pm 14.7 - - - - N 13 17 7 9 - - -
22/11:30am 12.9 - - - - WSW 9 13 5 7 - - -
22/11:00am 11.3 - - - - WSW 15 22 8 12 - - -
22/10:30am 12.1 - - - - W 9 17 5 9 - - -
22/10:00am 10.1 - - - - W 13 20 7 11 - - -
22/09:30am 9.2 - - - - WSW 15 20 8 11 - - -
22/09:00am 8.7 - - - - WSW 19 22 10 12 - - -
22/08:30am 8.3 - - - - SW 15 19 8 10 - - -
22/08:00am 8.5 - - - - WSW 17 20 9 11 - - -
22/07:30am 8.4 - - - - WSW 13 20 7 11 - - -
22/07:00am 8.3 - - - - W 13 20 7 11 - - -
22/06:30am 8.8 - - - - W 24 30 13 16 - - -
22/06:00am 8.4 - - - - W 24 33 13 18 - - -
22/05:30am 8.6 - - - - W 26 32 14 17 - - -
22/05:00am 8.7 - - - - W 24 30 13 16 - - -
22/04:30am 8.9 - - - - W 20 26 11 14 - - -
22/04:00am 8.9 - - - - W 20 26 11 14 - - -
22/03:30am 9.2 - - - - WNW 19 24 10 13 - - -
22/03:00am 9.3 - - - - W 17 22 9 12 - - -
22/02:30am 9.7 - - - - WNW 13 17 7 9 - - -
22/02:00am 9.5 - - - - W 17 20 9 11 - - -
22/01:30am 10.3 - - - - W 22 28 12 15 - - -
22/01:00am 10.1 - - - - WSW 26 30 14 16 - - -
22/12:30am 10.7 - - - - W 26 32 14 17 - - -
22/12:00am 11.1 - - - - W 24 28 13 15 - - -
 
Date/Time
EST
Temp
°C
App
Temp
°C
Dew
Point
°C
Rel
Hum
%
Delta-T
°C
Wind Press
QNH
hPa
Press
MSL
hPa
Rain since
9am
mm
Dir  Spd
km/h
Gust
km/h
Spd
kts
Gust
kts
21/11:30pm 11.7 - - - - W 24 30 13 16 - - -
21/11:00pm 11.8 - - - - W 24 28 13 15 - - -
21/10:30pm 12.9 - - - - WSW 15 20 8 11 - - -
21/10:00pm 13.3 - - - - WSW 15 19 8 10 - - -
21/09:30pm 13.7 - - - - SW 15 20 8 11 - - -
21/09:00pm 14.0 - - - - SW 15 19 8 10 - - -
21/08:30pm 14.1 - - - - SW 20 22 11 12 - - -
21/08:00pm 14.5 - - - - SSW 17 20 9 11 - - -
21/07:30pm 14.8 - - - - SSW 20 24 11 13 - - -
21/07:00pm 14.8 - - - - SSW 22 28 12 15 - - -
21/06:30pm 14.9 - - - - SSW 22 28 12 15 - - -
21/06:00pm 15.1 - - - - SSW 24 28 13 15 - - -
21/05:30pm 15.2 - - - - SW 28 33 15 18 - - -
21/05:00pm 15.3 - - - - SSW 28 35 15 19 - - -
21/04:30pm 15.3 - - - - SSW 28 37 15 20 - - -
21/04:00pm 15.5 - - - - SSW 28 35 15 19 - - -
21/03:30pm 15.3 - - - - SW 30 37 16 20 - - -
21/03:00pm 15.1 - - - - SW 30 39 16 21 - - -
21/02:30pm 14.9 - - - - SW 32 39 17 21 - - -
21/02:00pm 14.7 - - - - SSW 35 44 19 24 - - -
21/01:30pm 14.7 - - - - SSW 33 46 18 25 - - -
21/01:00pm 14.6 - - - - SSW 37 46 20 25 - - -
21/12:30pm 14.5 - - - - SW 37 46 20 25 - - -
21/12:00pm 14.4 - - - - SSW 41 52 22 28 - - -
21/11:30am 14.0 - - - - SW 41 52 22 28 - - -
21/11:00am 13.2 - - - - WSW 28 37 15 20 - - -
21/10:30am 12.3 - - - - WSW 28 39 15 21 - - -
21/10:00am 11.6 - - - - WSW 32 39 17 21 - - -
21/09:30am 10.7 - - - - WSW 33 44 18 24 - - -
21/09:00am 10.2 - - - - W 33 44 18 24 - - -
21/08:30am 9.6 - - - - WSW 32 41 17 22 - - -
21/08:00am 9.4 - - - - W 33 43 18 23 - - -
21/07:30am 9.2 - - - - W 33 44 18 24 - - -
21/07:00am 9.0 - - - - W 33 46 18 25 - - -
21/06:30am 9.3 - - - - W 33 46 18 25 - - -
21/06:00am 9.4 - - - - W 32 44 17 24 - - -
21/05:30am 9.5 - - - - W 32 39 17 21 - - -
21/05:00am 9.6 - - - - W 30 43 16 23 - - -
21/04:30am 9.4 - - - - W 30 41 16 22 - - -
21/04:00am 9.4 - - - - W 26 39 14 21 - - -
21/03:30am 9.4 - - - - W 32 41 17 22 - - -
21/03:00am 10.0 - - - - WSW 28 39 15 21 - - -
21/02:30am 10.5 - - - - WSW 32 43 17 23 - - -
21/02:00am 10.7 - - - - WSW 41 52 22 28 - - -
21/01:43am 10.9 - - - - WSW 37 57 20 31 - - -
21/01:30am 10.8 - - - - WSW 35 50 19 27 - - -
21/01:00am 11.0 - - - - WSW 37 50 20 27 - - -
21/12:30am 11.3 - - - - WSW 37 50 20 27 - - -
21/12:00am 11.4 - - - - SW 33 44 18 24 - - -
 
Date/Time
EST
Temp
°C
App
Temp
°C
Dew
Point
°C
Rel
Hum
%
Delta-T
°C
Wind Press
QNH
hPa
Press
MSL
hPa
Rain since
9am
mm
Dir  Spd
km/h
Gust
km/h
Spd
kts
Gust
kts
20/11:30pm 11.4 - - - - WSW 28 46 15 25 - - -
20/11:00pm 11.3 - - - - WSW 24 32 13 17 - - -
20/10:30pm 11.6 - - - - WSW 24 35 13 19 - - -
20/10:00pm 11.7 - - - - WSW 24 35 13 19 - - -
20/09:30pm 12.2 - - - - SW 28 37 15 20 - - -
20/09:00pm 12.4 - - - - SW 26 33 14 18 - - -
20/08:30pm 12.6 - - - - WSW 32 41 17 22 - - -
20/08:00pm 12.8 - - - - WSW 35 46 19 25 - - -
20/07:30pm 12.9 - - - - WSW 35 46 19 25 - - -
20/07:00pm 13.1 - - - - WSW 35 54 19 29 - - -
20/06:30pm 13.2 - - - - WSW 35 57 19 31 - - -
20/06:14pm 13.3 - - - - WSW 35 57 19 31 - - -
20/06:00pm 13.3 - - - - WSW 39 56 21 30 - - -
20/05:30pm 13.6 - - - - WSW 41 65 22 35 - - -
20/05:00pm 13.9 - - - - WSW 46 69 25 37 - - -

Other Formats:

Comma delimited format used in spreadsheet applications
http://www.bom.gov.au/fwo/IDN60801/IDN60801.95766.axf

JavaScript Object Notation format (JSON) in row-major order
http://www.bom.gov.au/fwo/IDN60801/IDN60801.95766.json